Time;durP1;ratioP1;P1;durP2;ratioP2;P2;SDS_P1;SDS_P2;PMS_P1;PMS_P2;Temp;Humidity;BMP_temperature;BMP_pressure;BME280_temperature;BME280_humidity;BME280_pressure;Samples;Min_cycle;Max_cycle;Signal;HPM_P1;HPM_P2
2022/08/11 00:00:08;;;;;;;6.15;3.53;;;;;;;23.52;34.20;100365.59;4979440;28;20045;-84
2022/08/11 00:02:39;;;;;;;5.43;3.88;;;;;;;23.58;34.21;100359.31;5002204;28;20444;-85
2022/08/11 00:05:15;;;;;;;6.78;4.05;;;;;;;23.49;34.36;100360.59;4999512;28;20120;-85
2022/08/11 00:07:51;;;;;;;4.47;3.80;;;;;;;23.48;34.13;100367.03;5020726;28;20513;-87
2022/08/11 00:10:20;;;;;;;4.72;3.67;;;;;;;23.54;34.14;100360.78;4941867;28;20100;-87
2022/08/11 00:12:58;;;;;;;4.43;3.60;;;;;;;23.40;34.55;100366.19;5017556;28;20049;-87
2022/08/11 00:15:28;;;;;;;6.95;3.70;;;;;;;23.48;34.35;100358.91;4983326;28;20049;-87
2022/08/11 00:17:57;;;;;;;4.18;3.78;;;;;;;23.42;34.35;100368.69;5024238;28;20045;-90
2022/08/11 00:20:31;;;;;;;4.35;3.15;;;;;;;23.34;34.58;100369.72;5039987;28;20136;-90
2022/08/11 00:23:17;;;;;;;4.18;3.60;;;;;;;23.22;34.94;100367.84;4999945;28;20493;-87
2022/08/11 00:25:47;;;;;;;6.25;4.15;;;;;;;23.35;34.67;100365.13;4992168;28;20136;-90
2022/08/11 00:28:22;;;;;;;8.35;3.90;;;;;;;23.14;35.04;100361.56;5039279;28;20065;-91
2022/08/11 00:30:53;;;;;;;6.13;3.47;;;;;;;23.27;34.99;100360.75;5006886;28;20042;-91
2022/08/11 00:33:23;;;;;;;8.90;3.65;;;;;;;23.30;35.08;100365.75;5004471;28;20045;-90
2022/08/11 00:36:14;;;;;;;4.50;3.42;;;;;;;23.29;34.99;100363.28;4989635;28;20065;-90
2022/08/11 00:38:42;;;;;;;3.65;3.35;;;;;;;23.22;34.90;100368.66;5040222;28;20050;-88
2022/08/11 00:41:45;;;;;;;6.18;3.47;;;;;;;22.92;35.92;100360.00;5022543;28;20044;-90
2022/08/11 00:44:29;;;;;;;7.17;3.60;;;;;;;22.96;35.76;100362.13;4956621;28;20396;-90
2022/08/11 00:52:17;;;;;;;4.43;3.45;;;;;;;22.82;35.75;100365.84;5007280;28;20040;-90
2022/08/11 00:54:52;;;;;;;7.13;3.50;;;;;;;22.79;36.15;100379.75;4937620;28;20569;-90
2022/08/11 00:57:19;;;;;;;4.75;3.67;;;;;;;22.94;35.61;100366.06;5004380;28;20123;-90
2022/08/11 01:00:22;;;;;;;4.85;3.55;;;;;;;22.80;36.17;100367.06;4977879;28;20046;-89
2022/08/11 01:03:04;;;;;;;6.05;3.50;;;;;;;22.87;35.67;100365.19;5008581;28;20129;-90
2022/08/11 01:05:59;;;;;;;4.43;3.95;;;;;;;22.79;36.21;100370.81;4973335;28;20119;-90
2022/08/11 01:08:31;;;;;;;5.63;3.50;;;;;;;22.93;35.47;100375.25;4984536;28;20043;-89
2022/08/11 01:11:48;;;;;;;6.22;3.53;;;;;;;22.72;35.70;100368.91;5011664;28;20048;-90
2022/08/11 01:14:34;;;;;;;9.15;4.13;;;;;;;22.65;36.33;100375.34;4913330;28;20487;-90
2022/08/11 01:17:25;;;;;;;5.93;3.97;;;;;;;22.77;36.08;100373.72;4973318;28;20045;-90
2022/08/11 01:20:24;;;;;;;4.40;3.75;;;;;;;22.60;36.25;100362.41;4975961;28;20531;-90
2022/08/11 01:23:19;;;;;;;4.10;3.70;;;;;;;22.62;36.47;100370.31;4961307;28;20077;-90
2022/08/11 01:26:14;;;;;;;5.47;3.92;;;;;;;22.50;36.48;100370.91;4974794;28;20484;-89
2022/08/11 01:29:03;;;;;;;8.73;4.03;;;;;;;22.54;36.11;100369.47;4977404;28;20045;-85
2022/08/11 01:31:33;;;;;;;7.03;4.07;;;;;;;22.71;36.07;100367.22;4984144;28;20042;-85
2022/08/11 01:34:19;;;;;;;7.60;3.67;;;;;;;22.46;36.88;100366.06;5038870;28;20041;-85
2022/08/11 01:37:01;;;;;;;5.00;3.63;;;;;;;22.52;36.71;100368.00;5000651;28;20561;-85
2022/08/11 01:39:40;;;;;;;9.10;3.70;;;;;;;22.54;36.70;100364.06;5006106;28;20061;-85
2022/08/11 01:46:04;;;;;;;5.57;3.75;;;;;;;22.32;37.32;100368.72;4962402;28;20052;-85
2022/08/11 01:48:48;;;;;;;4.15;3.22;;;;;;;22.40;37.12;100370.44;4964683;28;20061;-85
2022/08/11 01:51:24;;;;;;;4.05;3.65;;;;;;;22.49;36.71;100366.53;5001018;28;20506;-85
2022/08/11 01:53:56;;;;;;;5.13;3.63;;;;;;;22.61;36.79;100371.34;5004735;28;20123;-85
2022/08/11 01:56:25;;;;;;;4.40;3.75;;;;;;;22.62;36.69;100368.47;5021053;28;20042;-85
2022/08/11 01:59:17;;;;;;;5.35;4.22;;;;;;;22.38;37.10;100363.53;5034991;28;20056;-85
2022/08/11 02:01:57;;;;;;;5.25;3.80;;;;;;;22.57;36.38;100368.22;4952765;28;20042;-85
2022/08/11 02:04:32;;;;;;;5.57;3.92;;;;;;;22.39;37.30;100360.66;4991397;28;20076;-85
2022/08/11 02:07:25;;;;;;;5.93;3.85;;;;;;;22.20;38.19;100369.47;4990015;28;20042;-84
2022/08/11 02:13:51;;;;;;;5.63;4.22;;;;;;;22.17;37.94;100378.78;4989428;28;20504;-90
2022/08/11 02:16:23;;;;;;;3.97;3.53;;;;;;;22.28;37.86;100366.59;4974550;28;20069;-89
2022/08/11 02:25:20;;;;;;;5.65;4.18;;;;;;;22.05;37.90;100359.56;4967382;28;20045;-85
2022/08/11 02:27:54;;;;;;;7.57;3.92;;;;;;;22.20;38.13;100362.19;5000735;28;20397;-85
2022/08/11 02:30:24;;;;;;;6.88;3.90;;;;;;;22.30;38.28;100356.44;5018125;28;20515;-85
2022/08/11 02:35:56;;;;;;;4.88;4.38;;;;;;;22.29;37.72;100355.59;4992353;28;20066;-89
2022/08/11 02:38:51;;;;;;;6.60;3.97;;;;;;;22.05;38.71;100356.84;4969658;28;20046;-89
2022/08/11 02:44:37;;;;;;;6.03;4.05;;;;;;;21.86;38.60;100344.06;5007248;28;20117;-90
2022/08/11 02:47:04;;;;;;;4.15;3.75;;;;;;;22.07;38.34;100345.84;4963792;28;20041;-90
2022/08/11 02:49:56;;;;;;;4.68;4.13;;;;;;;21.83;38.73;100348.00;5025440;28;20508;-90
2022/08/11 02:52:44;;;;;;;6.10;3.80;;;;;;;21.89;38.84;100349.91;4963274;28;20073;-87
2022/08/11 02:55:31;;;;;;;5.85;3.88;;;;;;;21.77;39.59;100348.75;5001365;28;20060;-87
2022/08/11 02:59:48;;;;;;;4.85;3.97;;;;;;;21.75;39.51;100349.97;4978793;28;20563;-84
2022/08/11 03:01:57;;;;;;;6.60;4.68;;;;;;;21.87;38.65;100351.94;4913871;28;20408;-84
2022/08/11 03:04:48;;;;;;;7.40;4.40;;;;;;;21.78;39.03;100347.75;4955855;28;20052;-90
2022/08/11 03:07:22;;;;;;;5.30;3.75;;;;;;;21.85;39.42;100355.88;4981853;28;20042;-90
2022/08/11 03:10:10;;;;;;;9.20;4.07;;;;;;;21.64;39.85;100348.66;5021140;28;20041;-90
2022/08/11 03:19:17;;;;;;;6.28;4.13;;;;;;;21.66;39.60;100357.41;4934976;28;20041;-87
2022/08/11 03:21:48;;;;;;;7.03;4.10;;;;;;;21.77;39.25;100350.63;4968359;28;20045;-87
2022/08/11 03:25:08;;;;;;;6.43;4.30;;;;;;;21.55;39.60;100347.97;4969713;28;20509;-87
2022/08/11 03:28:01;;;;;;;4.95;3.85;;;;;;;21.83;38.94;100345.28;4979008;28;20047;-87
2022/08/11 03:30:42;;;;;;;4.13;3.67;;;;;;;21.56;39.20;100354.22;4959877;28;20045;-87
2022/08/11 03:36:26;;;;;;;5.95;4.22;;;;;;;21.49;39.09;100359.53;4984740;28;20107;-87
2022/08/11 03:39:02;;;;;;;5.15;4.10;;;;;;;21.71;38.80;100354.13;4994061;28;20508;-87
2022/08/11 03:41:43;;;;;;;6.45;4.30;;;;;;;21.58;39.04;100357.56;4998062;28;20537;-87
2022/08/11 03:44:58;;;;;;;5.75;4.10;;;;;;;21.55;39.59;100363.34;4955725;28;20041;-87
2022/08/11 03:47:32;;;;;;;5.85;4.32;;;;;;;21.68;38.94;100369.69;4988307;28;20057;-87
2022/08/11 03:50:26;;;;;;;6.25;4.22;;;;;;;21.42;39.68;100367.63;5005423;28;20409;-87
2022/08/11 03:53:11;;;;;;;6.43;3.83;;;;;;;21.67;38.88;100365.31;4942724;28;20046;-85
2022/08/11 03:56:02;;;;;;;7.50;4.35;;;;;;;21.58;39.30;100366.50;4971988;28;20453;-86
2022/08/11 03:59:11;;;;;;;6.35;3.60;;;;;;;21.41;38.99;100373.19;4948711;28;20048;-86
2022/08/11 04:01:44;;;;;;;6.43;4.57;;;;;;;21.57;39.96;100367.50;4920266;28;20072;-86
2022/08/11 04:04:29;;;;;;;8.52;3.92;;;;;;;21.59;39.46;100370.03;5004399;28;20044;-86
2022/08/11 04:07:17;;;;;;;7.68;4.82;;;;;;;21.34;40.19;100364.16;5023819;28;20041;-86
2022/08/11 04:10:10;;;;;;;6.63;4.15;;;;;;;21.29;40.16;100364.72;4982731;28;20042;-86
2022/08/11 04:12:56;;;;;;;4.82;4.13;;;;;;;21.55;39.69;100374.13;4960716;28;20045;-86
2022/08/11 04:16:03;;;;;;;7.22;4.32;;;;;;;21.17;40.67;100377.91;5009676;28;20041;-86
2022/08/11 04:23:02;;;;;;;4.93;4.40;;;;;;;21.25;40.32;100385.06;4952400;28;20561;-86
2022/08/11 04:26:06;;;;;;;7.93;4.53;;;;;;;21.10;41.02;100378.88;4970381;28;20046;-85
2022/08/11 04:29:13;;;;;;;6.13;4.05;;;;;;;21.20;40.33;100368.59;4950941;28;20148;-84
2022/08/11 04:32:21;;;;;;;5.07;4.18;;;;;;;21.15;40.88;100369.16;4949163;28;20045;-85
2022/08/11 04:35:10;;;;;;;5.20;4.25;;;;;;;21.24;40.87;100372.56;4944672;28;20416;-85
2022/08/11 04:38:08;;;;;;;7.72;4.53;;;;;;;21.21;41.17;100375.66;4901189;28;20059;-88
2022/08/11 04:41:13;;;;;;;4.72;4.22;;;;;;;21.28;40.85;100376.56;4870699;28;20055;-86
2022/08/11 04:43:58;;;;;;;7.30;4.43;;;;;;;;;;4889449;28;20058;-86
2022/08/11 04:47:09;;;;;;;6.45;4.85;;;;;;;21.49;40.01;100383.03;4941632;28;20179;-86
2022/08/11 05:02:22;;;;;;;7.28;4.82;;;;;;;21.94;40.31;100378.22;4913019;28;20035;-85
2022/08/11 05:05:31;;;;;;;7.22;4.40;;;;;;;22.11;39.50;100377.72;4914157;28;20126;-86
2022/08/11 05:08:18;;;;;;;6.68;5.53;;;;;;;22.20;39.15;100383.84;4956485;28;20061;-86
2022/08/11 05:11:08;;;;;;;5.90;5.00;;;;;;;22.06;41.30;100387.47;4994836;28;20052;-86
2022/08/11 05:37:05;;;;;;;9.55;5.22;;;;;;;22.52;36.82;100390.47;4947250;28;20143;-86
2022/08/11 05:57:07;;;;;;;12.15;4.72;;;;;;;22.73;36.34;100389.53;4988751;28;20560;-85
2022/08/11 05:59:34;;;;;;;8.23;4.30;;;;;;;22.86;36.67;100393.34;4997519;28;20049;-84
2022/08/11 06:02:04;;;;;;;10.40;4.50;;;;;;;22.93;36.35;100403.16;5038320;28;20037;-86
2022/08/11 06:04:32;;;;;;;9.20;4.63;;;;;;;22.95;35.94;100400.25;4989042;28;20128;-85
2022/08/11 06:07:07;;;;;;;8.18;4.93;;;;;;;22.93;36.58;100403.16;5025436;28;20049;-85
2022/08/11 06:09:37;;;;;;;10.52;4.70;;;;;;;22.78;36.02;100391.63;4985573;28;20493;-85
2022/08/11 06:12:24;;;;;;;7.40;4.38;;;;;;;22.85;36.25;100399.81;5004580;28;20493;-85
2022/08/11 06:14:54;;;;;;;8.25;5.00;;;;;;;22.87;36.51;100389.56;4958435;28;20045;-85
2022/08/11 06:17:23;;;;;;;10.10;4.68;;;;;;;22.89;36.29;100393.75;4954838;28;20045;-86
2022/08/11 06:19:56;;;;;;;14.13;5.13;;;;;;;22.86;36.44;100402.28;4993069;28;20053;-85
2022/08/11 06:22:32;;;;;;;7.30;4.60;;;;;;;22.82;36.85;100395.63;5006307;28;20171;-86
2022/08/11 06:34:14;;;;;;;7.47;4.38;;;;;;;22.99;36.68;100395.28;5007480;28;20037;-84
2022/08/11 06:37:19;;;;;;;10.93;4.82;;;;;;;22.81;36.92;100393.94;5000044;28;20041;-84
2022/08/11 06:39:49;;;;;;;4.88;4.10;;;;;;;23.03;36.63;100401.97;4950978;28;20046;-84
2022/08/11 06:42:39;;;;;;;7.82;4.75;;;;;;;22.95;36.89;100395.66;5005245;28;20493;-84
2022/08/11 06:45:29;;;;;;;7.28;4.63;;;;;;;23.02;36.69;100393.00;4944955;28;20049;-83
2022/08/11 06:47:59;;;;;;;9.77;4.75;;;;;;;23.17;36.37;100396.38;4937776;28;20105;-83
2022/08/11 06:53:17;;;;;;;7.47;4.28;;;;;;;23.26;36.65;100401.63;4975995;28;20052;-82
2022/08/11 07:01:45;;;;;;;10.27;4.40;;;;;;;23.38;36.36;100395.41;4976894;28;20095;-84
2022/08/11 07:04:42;;;;;;;6.78;4.05;;;;;;;23.39;37.02;100399.75;4975738;28;20069;-83
2022/08/11 07:16:27;;;;;;;5.38;4.28;;;;;;;23.60;36.56;100379.75;4987422;28;20069;-84
2022/08/11 07:30:58;;;;;;;6.00;4.43;;;;;;;23.85;36.84;100381.88;4956930;28;20659;-84
2022/08/11 07:33:31;;;;;;;6.30;4.35;;;;;;;23.82;36.36;100376.88;5002395;28;20147;-84
2022/08/11 07:36:20;;;;;;;5.40;4.45;;;;;;;23.94;36.27;100377.06;4990422;28;20060;-84
2022/08/11 07:38:53;;;;;;;6.07;3.92;;;;;;;24.01;36.34;100369.75;5021297;28;20124;-83
2022/08/11 07:41:22;;;;;;;7.07;4.43;;;;;;;24.08;36.59;100376.03;5038155;28;20061;-83
2022/08/11 07:43:55;;;;;;;4.95;4.28;;;;;;;24.11;36.45;100370.16;5028653;28;20041;-83
2022/08/11 07:54:40;;;;;;;4.93;4.07;;;;;;;24.33;36.11;100373.47;4978436;28;20046;-82
2022/08/11 08:19:58;;;;;;;10.70;4.47;;;;;;;24.52;35.69;100371.75;4972255;28;20647;-84
2022/08/11 08:22:25;;;;;;;9.68;4.28;;;;;;;24.58;35.42;100362.78;5006741;28;20890;-85
2022/08/11 08:25:05;;;;;;;8.45;4.65;;;;;;;24.57;35.19;100374.66;4979161;28;20049;-84
2022/08/11 08:27:34;;;;;;;5.72;4.57;;;;;;;24.51;35.75;100378.25;5026089;28;20064;-85
2022/08/11 08:32:52;;;;;;;4.40;3.65;;;;;;;24.57;35.48;100362.97;5006610;28;20090;-83
2022/08/11 08:35:20;;;;;;;4.95;3.83;;;;;;;24.62;35.25;100361.28;5015327;28;20045;-83
2022/08/11 08:37:50;;;;;;;4.75;3.92;;;;;;;24.70;35.49;100357.47;5010314;28;20103;-83
2022/08/11 08:40:17;;;;;;;9.15;3.78;;;;;;;24.76;35.66;100364.78;5042047;28;20038;-83
2022/08/11 08:42:55;;;;;;;8.95;4.22;;;;;;;24.70;34.76;100360.19;5006855;28;20064;-83
2022/08/11 08:45:26;;;;;;;5.57;4.05;;;;;;;24.78;34.85;100372.69;4987151;28;20132;-83
2022/08/11 08:48:01;;;;;;;8.23;3.90;;;;;;;24.77;34.81;100365.63;4987394;28;20045;-83
2022/08/11 08:53:23;;;;;;;7.38;3.88;;;;;;;24.76;34.61;100353.09;4990930;28;20490;-89
2022/08/11 08:55:51;;;;;;;4.28;3.70;;;;;;;24.83;34.66;100357.44;5004559;28;20049;-88
2022/08/11 08:58:19;;;;;;;7.65;4.45;;;;;;;24.89;34.70;100353.03;5022011;28;20497;-86
2022/08/11 09:00:49;;;;;;;6.57;4.05;;;;;;;24.92;34.82;100349.84;5023829;28;20048;-87
2022/08/11 09:03:18;;;;;;;4.07;3.65;;;;;;;24.92;34.88;100349.84;5040404;28;20053;-84
2022/08/11 09:06:06;;;;;;;4.45;3.85;;;;;;;25.03;34.45;100341.00;4970419;28;20111;-82
2022/08/11 09:08:34;;;;;;;4.30;3.90;;;;;;;24.99;34.08;100355.28;4975823;28;20485;-83
2022/08/11 09:13:49;;;;;;;11.35;4.35;;;;;;;25.00;33.99;100341.44;4977023;28;20413;-83
2022/08/11 09:16:33;;;;;;;5.78;3.60;;;;;;;25.06;34.20;100342.47;5004083;28;20045;-83
2022/08/11 09:19:01;;;;;;;5.85;4.10;;;;;;;25.09;33.85;100344.75;4985960;28;20046;-83
2022/08/11 09:21:31;;;;;;;3.90;3.47;;;;;;;25.16;33.63;100340.13;4981186;28;20104;-83
2022/08/11 09:27:05;;;;;;;7.28;3.47;;;;;;;25.24;33.46;100342.59;4983780;28;20054;-84
2022/08/11 09:29:33;;;;;;;4.70;3.67;;;;;;;25.30;32.24;100338.16;4998636;28;20048;-83
2022/08/11 09:32:00;;;;;;;5.95;3.33;;;;;;;25.29;32.83;100337.34;5020701;28;20070;-84
2022/08/11 09:34:29;;;;;;;6.00;3.50;;;;;;;25.33;33.17;100333.09;4990659;28;20046;-83
2022/08/11 09:45:45;;;;;;;5.22;3.55;;;;;;;25.49;32.09;100328.16;4973116;28;20058;-82
2022/08/11 09:48:11;;;;;;;5.18;3.53;;;;;;;25.54;32.64;100331.91;4989944;28;20045;-82
2022/08/11 09:50:39;;;;;;;6.07;3.65;;;;;;;25.60;31.25;100343.78;5004547;28;20409;-83
2022/08/11 09:53:05;;;;;;;8.43;3.30;;;;;;;25.56;31.06;100320.78;4986833;28;20500;-84
2022/08/11 09:55:52;;;;;;;6.40;3.33;;;;;;;25.59;30.61;100317.63;4986883;28;20115;-83
2022/08/11 09:58:20;;;;;;;4.90;3.10;;;;;;;25.66;31.13;100307.53;5006219;28;20054;-84
2022/08/11 10:01:25;;;;;;;6.53;3.33;;;;;;;25.68;30.51;100307.31;5013801;28;20516;-84
2022/08/11 10:04:05;;;;;;;3.25;2.95;;;;;;;25.67;30.54;100311.94;5003250;28;20131;-85
2022/08/11 10:09:22;;;;;;;3.80;2.88;;;;;;;25.81;30.42;100307.19;4972605;28;20060;-87
2022/08/11 10:21:13;;;;;;;7.35;3.30;;;;;;;25.81;29.17;100293.59;5000590;28;20446;-90
2022/08/11 10:35:29;;;;;;;3.58;2.95;;;;;;;25.99;28.26;100279.19;4943295;28;20053;-89
2022/08/11 10:37:57;;;;;;;3.85;2.60;;;;;;;25.99;28.38;100269.13;4965641;28;20126;-88
2022/08/11 10:40:44;;;;;;;4.22;2.75;;;;;;;25.97;27.56;100279.41;4913002;28;20144;-89
2022/08/11 10:43:12;;;;;;;5.90;3.10;;;;;;;26.05;27.88;100272.00;4949520;28;20500;-89
2022/08/11 10:48:56;;;;;;;3.67;3.00;;;;;;;26.10;27.93;100278.41;4917145;28;20043;-89
2022/08/11 10:59:55;;;;;;;4.30;2.95;;;;;;;26.25;28.08;100252.72;4920317;28;20038;-88
2022/08/11 11:02:22;;;;;;;3.95;3.35;;;;;;;26.26;28.01;100252.50;4961339;28;20061;-88
2022/08/11 11:04:56;;;;;;;5.13;2.72;;;;;;;26.28;27.79;100252.25;4938838;28;20438;-84
2022/08/11 11:07:49;;;;;;;3.83;2.75;;;;;;;26.27;27.44;100245.16;4938999;28;20042;-85
2022/08/11 11:10:16;;;;;;;4.93;3.03;;;;;;;26.31;27.68;100255.38;4985699;28;20042;-84
2022/08/11 11:23:07;;;;;;;3.67;2.65;;;;;;;26.39;27.68;100235.16;5005573;28;20083;-85
2022/08/11 11:26:05;;;;;;;6.55;2.95;;;;;;;26.41;27.24;100233.03;5034638;28;20516;-83
2022/08/11 11:37:13;;;;;;;3.45;3.20;;;;;;;26.45;27.07;100231.50;4983741;28;20025;-87
2022/08/11 11:39:40;;;;;;;11.32;3.75;;;;;;;26.48;26.60;100236.47;5020764;28;20046;-88
2022/08/11 11:42:09;;;;;;;3.58;2.92;;;;;;;26.48;26.65;100217.41;4993777;28;20381;-88
2022/08/11 11:44:38;;;;;;;6.68;3.08;;;;;;;26.52;26.97;100217.81;4991241;28;20109;-88
2022/08/11 11:47:06;;;;;;;5.10;2.78;;;;;;;26.54;26.75;100213.81;5003790;28;20631;-87
2022/08/11 11:49:38;;;;;;;5.80;3.20;;;;;;;26.57;26.31;100226.97;4989796;28;20049;-84
2022/08/11 11:52:06;;;;;;;6.93;3.37;;;;;;;26.59;26.46;100213.97;5000764;28;20052;-84
2022/08/11 11:54:35;;;;;;;3.65;3.25;;;;;;;26.63;26.11;100211.59;4987695;28;20440;-83
2022/08/11 12:02:39;;;;;;;3.28;2.88;;;;;;;26.74;26.70;100221.72;5005604;28;20052;-84
2022/08/11 12:05:09;;;;;;;4.95;2.72;;;;;;;26.77;26.09;100198.63;5016175;28;20103;-83
2022/08/11 12:13:39;;;;;;;5.43;3.22;;;;;;;26.77;26.51;100194.00;4976449;28;20144;-85
2022/08/11 12:13:39;;;;;;;4.65;3.50;;;;;;;26.79;25.83;100194.59;4966489;28;20045;-87
2022/08/11 12:16:08;;;;;;;3.97;3.33;;;;;;;26.82;26.12;100194.13;4975785;28;20144;-87
2022/08/11 12:18:58;;;;;;;9.63;3.10;;;;;;;26.82;25.32;100206.91;5016901;28;20046;-82
2022/08/11 12:21:29;;;;;;;6.07;3.40;;;;;;;26.92;24.47;100184.50;5013846;28;20537;-84
2022/08/11 12:29:44;;;;;;;7.38;2.90;;;;;;;27.00;25.14;100206.81;4915218;28;20058;-84
2022/08/11 12:32:14;;;;;;;3.60;2.90;;;;;;;27.08;24.96;100205.66;4985129;28;20046;-84
2022/08/11 12:34:40;;;;;;;3.55;3.00;;;;;;;27.10;25.01;100189.91;4978130;28;20054;-85
2022/08/11 12:37:09;;;;;;;4.88;3.00;;;;;;;27.13;24.56;100183.13;4984181;28;20054;-84
2022/08/11 12:51:55;;;;;;;4.95;3.10;;;;;;;27.14;24.36;100171.97;4939848;28;20055;-85
2022/08/11 12:53:25;;;;;;;4.40;3.00;;;;;;;27.20;24.32;100148.44;4911919;28;20061;-85
2022/08/11 12:58:40;;;;;;;5.53;2.78;;;;;;;27.26;24.45;100164.66;4975338;28;20495;-88
2022/08/11 13:06:45;;;;;;;5.78;3.13;;;;;;;27.27;24.07;100139.06;4957883;28;20037;-82
2022/08/11 13:09:16;;;;;;;5.10;2.75;;;;;;;27.31;24.69;100133.13;4985369;28;20050;-83
2022/08/11 13:18:22;;;;;;;4.07;2.28;;;;;;;27.40;24.34;100129.81;4953015;28;20092;-92
2022/08/11 13:20:52;;;;;;;4.15;2.88;;;;;;;27.43;23.77;100136.69;5008250;28;20052;-92
2022/08/11 13:23:19;;;;;;;3.13;2.80;;;;;;;27.42;24.24;100127.66;5059530;28;20101;-91
2022/08/11 13:25:47;;;;;;;4.50;2.83;;;;;;;27.46;24.17;100133.47;5013867;28;20516;-87
2022/08/11 13:28:15;;;;;;;5.35;2.40;;;;;;;27.48;23.91;100134.06;4985744;28;20055;-90
2022/08/11 13:33:27;;;;;;;6.60;3.10;;;;;;;27.55;23.50;100121.09;4986639;28;20400;-89
2022/08/11 13:35:54;;;;;;;5.15;2.92;;;;;;;27.57;23.68;100107.25;5023791;28;20045;-91
2022/08/11 13:38:24;;;;;;;6.85;3.28;;;;;;;27.57;23.38;100105.34;5024849;28;20053;-92
2022/08/11 13:40:52;;;;;;;4.75;2.90;;;;;;;27.55;23.52;100095.72;5018207;28;20099;-91
2022/08/11 13:43:22;;;;;;;3.75;2.90;;;;;;;27.61;23.37;100119.34;5019594;28;20508;-92
2022/08/11 13:45:51;;;;;;;4.38;3.47;;;;;;;27.64;23.72;100105.22;5020267;28;20045;-90
2022/08/11 13:48:18;;;;;;;4.07;2.97;;;;;;;27.66;23.11;100098.44;5008660;28;20045;-93
2022/08/11 13:53:31;;;;;;;7.15;3.83;;;;;;;27.74;23.31;100099.97;4994049;28;20042;-90
2022/08/11 13:55:59;;;;;;;8.38;3.03;;;;;;;27.73;23.05;100089.28;5022043;28;20048;-90
2022/08/11 13:58:27;;;;;;;4.35;3.08;;;;;;;27.71;23.54;100090.34;5024494;28;20049;-88
2022/08/11 14:01:09;;;;;;;4.57;2.65;;;;;;;27.77;23.26;100104.94;4988172;28;20049;-91
2022/08/11 14:04:02;;;;;;;3.35;3.03;;;;;;;27.78;23.37;100084.75;4964192;28;20061;-89
2022/08/11 14:06:51;;;;;;;4.18;2.85;;;;;;;27.81;23.45;100077.97;5005234;28;20489;-90
2022/08/11 14:09:24;;;;;;;9.57;2.90;;;;;;;27.79;23.52;100078.22;5008708;28;20053;-91
2022/08/11 14:14:56;;;;;;;5.60;3.00;;;;;;;27.87;23.99;100074.31;4944686;28;20053;-91
2022/08/11 14:17:25;;;;;;;3.78;3.35;;;;;;;27.91;23.84;100073.59;4919875;28;20110;-90
2022/08/11 14:20:16;;;;;;;6.70;3.33;;;;;;;27.96;23.64;100070.13;4957058;28;20512;-91
2022/08/11 14:23:38;;;;;;;6.28;3.50;;;;;;;27.88;23.71;100059.59;4895171;28;20047;-93
2022/08/11 14:26:25;;;;;;;4.82;3.00;;;;;;;27.98;24.06;100062.50;4904761;28;20059;-89
2022/08/11 14:28:56;;;;;;;2.78;2.58;;;;;;;28.01;23.68;100050.25;4939117;28;20051;-94
2022/08/11 14:31:24;;;;;;;3.55;2.88;;;;;;;28.04;23.50;100049.78;4940424;28;20430;-94
2022/08/11 14:33:53;;;;;;;5.10;2.67;;;;;;;28.06;23.87;100053.94;4910309;28;20046;-95
2022/08/11 14:36:57;;;;;;;4.32;2.75;;;;;;;28.05;23.08;100073.28;4957512;28;20440;-95
2022/08/11 14:39:26;;;;;;;3.35;2.95;;;;;;;28.10;23.00;100049.63;4949172;28;20557;-94
2022/08/11 14:47:36;;;;;;;5.30;3.03;;;;;;;28.13;23.07;100048.31;4957273;28;20057;-90
2022/08/11 14:50:04;;;;;;;4.63;2.72;;;;;;;28.14;23.65;100034.41;5028367;28;20429;-91
2022/08/11 14:52:54;;;;;;;4.07;2.78;;;;;;;28.14;23.12;100039.88;4989731;28;20046;-87
2022/08/11 14:58:36;;;;;;;4.40;2.78;;;;;;;28.21;22.55;100027.97;4978716;28;20485;-92
2022/08/11 15:03:05;;;;;;;5.05;2.85;;;;;;;28.26;22.62;100026.13;5007097;28;20034;-90
2022/08/11 15:03:54;;;;;;;4.88;2.58;;;;;;;28.31;23.12;100025.41;4963930;28;20049;-92
2022/08/11 15:06:41;;;;;;;3.40;2.90;;;;;;;28.36;23.16;100023.56;4976319;28;20120;-93
2022/08/11 15:09:08;;;;;;;3.60;2.95;;;;;;;28.42;23.04;100020.91;5009925;28;20060;-93
2022/08/11 15:17:09;;;;;;;3.65;3.10;;;;;;;28.31;22.08;100009.84;5016416;28;20054;-94
2022/08/11 15:24:18;;;;;;;3.80;2.95;;;;;;;28.33;22.45;100020.53;5022375;28;20045;-94
2022/08/11 15:26:14;;;;;;;5.70;2.70;;;;;;;28.34;22.45;100016.69;4938521;28;20041;-92
2022/08/11 15:37:35;;;;;;;6.13;3.00;;;;;;;28.44;22.97;100005.13;4993771;28;20510;-93
2022/08/11 15:46:40;;;;;;;;;;;;;;;28.23;21.83;100010.25;4944366;28;20038;-93
2022/08/11 15:49:58;;;;;;;4.05;2.65;;;;;;;28.24;21.92;99992.81;4993912;28;19921;-92
2022/08/11 15:52:46;;;;;;;5.45;2.95;;;;;;;28.28;22.40;99988.50;4943527;28;20052;-92
2022/08/11 15:55:14;;;;;;;3.38;3.08;;;;;;;28.33;22.50;99988.56;5001885;28;20065;-90
2022/08/11 16:06:39;;;;;;;3.28;2.63;;;;;;;28.31;21.84;99981.69;4971780;28;20485;-90
2022/08/11 16:09:18;;;;;;;4.95;2.85;;;;;;;28.33;21.73;99995.94;5008526;28;20056;-90
2022/08/11 16:11:46;;;;;;;8.75;3.30;;;;;;;28.32;21.92;99992.38;4990784;28;20049;-92
2022/08/11 16:17:06;;;;;;;7.77;2.93;;;;;;;28.32;21.92;99986.09;4946278;28;20440;-94
2022/08/11 16:19:35;;;;;;;5.90;3.17;;;;;;;28.30;22.05;99974.59;4996233;28;20105;-94
2022/08/11 16:22:11;;;;;;;5.50;3.15;;;;;;;28.28;21.57;99979.47;4989839;28;20324;-91
2022/08/11 16:24:44;;;;;;;7.20;3.10;;;;;;;28.30;22.04;99975.41;4991421;28;20056;-93
2022/08/11 16:27:35;;;;;;;5.95;2.67;;;;;;;28.29;21.79;99975.66;4979819;28;20108;-90
2022/08/11 16:30:04;;;;;;;4.03;3.00;;;;;;;28.28;22.02;99966.63;5037733;28;20275;-90
2022/08/11 16:32:36;;;;;;;4.00;2.97;;;;;;;28.29;22.46;99965.59;4988313;28;20042;-90
2022/08/11 16:38:39;;;;;;;5.25;3.10;;;;;;;28.28;22.82;99958.44;4957028;28;20563;-94
2022/08/11 16:41:15;;;;;;;5.07;3.20;;;;;;;28.27;22.38;99958.72;5020513;28;20042;-95
2022/08/11 16:49:38;;;;;;;5.97;2.90;;;;;;;28.23;22.57;99946.63;4966890;28;20049;-91
2022/08/11 16:52:09;;;;;;;6.72;3.08;;;;;;;28.32;22.62;99956.06;5008705;28;20041;-91
2022/08/11 16:54:38;;;;;;;9.07;2.90;;;;;;;28.30;22.46;99955.47;5002067;28;20041;-92
2022/08/11 17:00:06;;;;;;;6.07;3.20;;;;;;;28.26;22.72;99952.41;4949703;28;20399;-92
2022/08/11 17:14:30;;;;;;;4.23;3.10;;;;;;;28.25;22.70;99961.69;4963912;28;20053;-93
2022/08/11 17:21:19;;;;;;;8.25;3.10;;;;;;;28.29;22.81;99951.06;4954548;28;20037;-94
2022/08/11 17:23:49;;;;;;;4.07;3.22;;;;;;;28.30;23.06;99945.38;5040258;28;20405;-91
2022/08/11 17:26:57;;;;;;;6.68;3.13;;;;;;;28.23;23.01;99943.91;5016995;28;20444;-93
2022/08/11 17:29:40;;;;;;;3.28;2.70;;;;;;;28.21;22.54;99946.03;4994261;28;20072;-96
2022/08/11 17:35:37;;;;;;;3.80;3.03;;;;;;;28.24;22.49;99931.88;4979723;28;20103;-92
2022/08/11 17:38:07;;;;;;;3.10;2.80;;;;;;;28.27;22.46;99937.69;4997233;28;20560;-83
2022/08/11 17:40:38;;;;;;;4.65;3.20;;;;;;;28.23;22.52;99938.44;5022199;28;20072;-84
2022/08/11 17:48:37;;;;;;;4.85;3.28;;;;;;;28.21;22.79;99941.41;4998798;28;20049;-82
2022/08/11 17:59:50;;;;;;;6.43;3.05;;;;;;;28.21;22.44;99935.94;4945577;28;20041;-83
2022/08/11 17:59:51;;;;;;;5.32;3.00;;;;;;;28.23;22.79;99941.16;4970280;28;20049;-84
2022/08/11 18:05:17;;;;;;;4.72;2.63;;;;;;;28.19;22.44;99948.19;4982494;28;20049;-84
